EmailTwitter


Surface observations / France / LFBO (07630)

Regions: Quebec | Canada | USA | Europe | France | UK | Elsewhere
Station
Display
Info & Location for LFBO (07630) | Help decoding METAR

Weather Conditions observed on 2021/03/05 at 19:30 UTC at TOULOUSE/BLAGNAC, FR (LFBO)

Temperature: 11.0 Celsius.

Dewpoint: 6.0 Celsius.

Relative Humidity: 71%

Winds: Northwest at 11 km/h or 6 knots.

Mean Sea level Pressure: 101.90 kilopascals.

Coded METAR:

LFBO 051930Z AUTO 31006KT CAVOK 11/06 Q1019 NOSIG=